sensor_id;sensor_type;location;lat;lon;timestamp;P1;durP1;ratioP1;P2;durP2;ratioP2
6372;SDS011;3219;51.362;7.074;2024-03-25T00:00:35;17.90;;;2.85;;
6372;SDS011;3219;51.362;7.074;2024-03-25T00:05:31;10.20;;;2.70;;
6372;SDS011;3219;51.362;7.074;2024-03-25T00:07:59;12.40;;;3.20;;
6372;SDS011;3219;51.362;7.074;2024-03-25T00:10:26;14.70;;;3.83;;
6372;SDS011;3219;51.362;7.074;2024-03-25T00:12:54;10.32;;;3.25;;
6372;SDS011;3219;51.362;7.074;2024-03-25T00:15:22;11.75;;;4.38;;
6372;SDS011;3219;51.362;7.074;2024-03-25T00:17:51;13.88;;;5.13;;
6372;SDS011;3219;51.362;7.074;2024-03-25T00:20:18;11.70;;;5.20;;
6372;SDS011;3219;51.362;7.074;2024-03-25T00:22:47;10.57;;;4.15;;
6372;SDS011;3219;51.362;7.074;2024-03-25T00:25:14;13.30;;;4.53;;
6372;SDS011;3219;51.362;7.074;2024-03-25T00:27:43;17.73;;;5.13;;
6372;SDS011;3219;51.362;7.074;2024-03-25T00:30:10;16.23;;;5.80;;
6372;SDS011;3219;51.362;7.074;2024-03-25T00:32:39;14.18;;;5.32;;
6372;SDS011;3219;51.362;7.074;2024-03-25T00:35:08;14.02;;;5.47;;
6372;SDS011;3219;51.362;7.074;2024-03-25T00:37:36;19.08;;;8.50;;
6372;SDS011;3219;51.362;7.074;2024-03-25T00:40:04;20.13;;;8.73;;
6372;SDS011;3219;51.362;7.074;2024-03-25T00:42:33;21.08;;;8.70;;
6372;SDS011;3219;51.362;7.074;2024-03-25T00:45:00;20.05;;;9.02;;
6372;SDS011;3219;51.362;7.074;2024-03-25T00:47:30;27.67;;;9.07;;
6372;SDS011;3219;51.362;7.074;2024-03-25T00:49:58;19.15;;;7.63;;
6372;SDS011;3219;51.362;7.074;2024-03-25T00:52:27;21.65;;;9.18;;
6372;SDS011;3219;51.362;7.074;2024-03-25T00:54:54;21.75;;;7.50;;
6372;SDS011;3219;51.362;7.074;2024-03-25T00:57:23;15.95;;;7.45;;
6372;SDS011;3219;51.362;7.074;2024-03-25T00:59:50;22.42;;;9.13;;
6372;SDS011;3219;51.362;7.074;2024-03-25T01:02:18;22.63;;;7.97;;
6372;SDS011;3219;51.362;7.074;2024-03-25T01:04:46;19.60;;;6.20;;
6372;SDS011;3219;51.362;7.074;2024-03-25T01:07:14;19.17;;;6.80;;
6372;SDS011;3219;51.362;7.074;2024-03-25T01:09:43;15.90;;;5.97;;
6372;SDS011;3219;51.362;7.074;2024-03-25T01:12:11;15.40;;;5.97;;
6372;SDS011;3219;51.362;7.074;2024-03-25T01:14:38;16.48;;;6.93;;
6372;SDS011;3219;51.362;7.074;2024-03-25T01:17:06;14.20;;;5.85;;
6372;SDS011;3219;51.362;7.074;2024-03-25T01:19:34;17.52;;;6.60;;
6372;SDS011;3219;51.362;7.074;2024-03-25T01:22:02;11.57;;;4.70;;
6372;SDS011;3219;51.362;7.074;2024-03-25T01:24:30;14.27;;;4.82;;
6372;SDS011;3219;51.362;7.074;2024-03-25T01:26:59;11.75;;;3.70;;
6372;SDS011;3219;51.362;7.074;2024-03-25T01:29:27;12.90;;;4.78;;
6372;SDS011;3219;51.362;7.074;2024-03-25T01:31:55;9.27;;;3.85;;
6372;SDS011;3219;51.362;7.074;2024-03-25T01:34:23;14.50;;;3.45;;
6372;SDS011;3219;51.362;7.074;2024-03-25T01:36:52;10.38;;;2.92;;
6372;SDS011;3219;51.362;7.074;2024-03-25T01:39:19;9.55;;;3.80;;
6372;SDS011;3219;51.362;7.074;2024-03-25T01:41:47;10.88;;;2.63;;
6372;SDS011;3219;51.362;7.074;2024-03-25T01:44:16;14.90;;;3.90;;
6372;SDS011;3219;51.362;7.074;2024-03-25T01:46:44;12.25;;;4.05;;
6372;SDS011;3219;51.362;7.074;2024-03-25T01:49:11;11.63;;;4.03;;
6372;SDS011;3219;51.362;7.074;2024-03-25T01:51:40;12.88;;;3.67;;
6372;SDS011;3219;51.362;7.074;2024-03-25T01:54:07;10.88;;;3.80;;
6372;SDS011;3219;51.362;7.074;2024-03-25T01:56:39;10.52;;;5.18;;
6372;SDS011;3219;51.362;7.074;2024-03-25T01:59:07;11.10;;;2.90;;
6372;SDS011;3219;51.362;7.074;2024-03-25T02:01:36;14.20;;;3.30;;
6372;SDS011;3219;51.362;7.074;2024-03-25T02:04:04;8.45;;;2.58;;
6372;SDS011;3219;51.362;7.074;2024-03-25T02:06:32;12.90;;;3.40;;
6372;SDS011;3219;51.362;7.074;2024-03-25T02:09:00;8.57;;;3.22;;
6372;SDS011;3219;51.362;7.074;2024-03-25T02:11:29;12.43;;;3.00;;
6372;SDS011;3219;51.362;7.074;2024-03-25T02:13:57;19.67;;;4.47;;
6372;SDS011;3219;51.362;7.074;2024-03-25T02:16:25;9.43;;;3.05;;
6372;SDS011;3219;51.362;7.074;2024-03-25T02:18:54;8.98;;;2.45;;
6372;SDS011;3219;51.362;7.074;2024-03-25T02:21:22;11.30;;;4.75;;
6372;SDS011;3219;51.362;7.074;2024-03-25T02:23:49;13.63;;;2.90;;
6372;SDS011;3219;51.362;7.074;2024-03-25T02:26:22;12.23;;;4.13;;
6372;SDS011;3219;51.362;7.074;2024-03-25T02:28:49;16.52;;;4.07;;
6372;SDS011;3219;51.362;7.074;2024-03-25T02:31:17;14.65;;;3.05;;
6372;SDS011;3219;51.362;7.074;2024-03-25T02:33:44;13.77;;;3.88;;
6372;SDS011;3219;51.362;7.074;2024-03-25T02:36:13;9.35;;;2.65;;
6372;SDS011;3219;51.362;7.074;2024-03-25T02:38:40;10.43;;;4.07;;
6372;SDS011;3219;51.362;7.074;2024-03-25T02:41:08;12.73;;;2.83;;
6372;SDS011;3219;51.362;7.074;2024-03-25T02:43:37;14.10;;;3.95;;
6372;SDS011;3219;51.362;7.074;2024-03-25T02:48:32;9.32;;;2.70;;
6372;SDS011;3219;51.362;7.074;2024-03-25T02:51:01;7.72;;;3.78;;
6372;SDS011;3219;51.362;7.074;2024-03-25T02:53:28;11.13;;;3.97;;
6372;SDS011;3219;51.362;7.074;2024-03-25T02:55:56;8.63;;;3.80;;
6372;SDS011;3219;51.362;7.074;2024-03-25T02:58:23;10.25;;;4.05;;
6372;SDS011;3219;51.362;7.074;2024-03-25T03:00:53;11.77;;;3.83;;
6372;SDS011;3219;51.362;7.074;2024-03-25T03:03:20;10.45;;;3.60;;
6372;SDS011;3219;51.362;7.074;2024-03-25T03:05:48;8.07;;;3.30;;
6372;SDS011;3219;51.362;7.074;2024-03-25T03:08:16;11.40;;;4.00;;
6372;SDS011;3219;51.362;7.074;2024-03-25T03:10:44;15.73;;;3.58;;
6372;SDS011;3219;51.362;7.074;2024-03-25T03:13:11;8.45;;;4.25;;
6372;SDS011;3219;51.362;7.074;2024-03-25T03:15:43;14.32;;;3.95;;
6372;SDS011;3219;51.362;7.074;2024-03-25T03:18:11;8.82;;;3.78;;
6372;SDS011;3219;51.362;7.074;2024-03-25T03:20:39;11.20;;;4.22;;
6372;SDS011;3219;51.362;7.074;2024-03-25T03:23:07;10.40;;;4.45;;
6372;SDS011;3219;51.362;7.074;2024-03-25T03:25:35;12.27;;;5.78;;
6372;SDS011;3219;51.362;7.074;2024-03-25T03:28:02;11.35;;;4.88;;
6372;SDS011;3219;51.362;7.074;2024-03-25T03:30:31;17.42;;;5.57;;
6372;SDS011;3219;51.362;7.074;2024-03-25T03:32:58;13.40;;;4.75;;
6372;SDS011;3219;51.362;7.074;2024-03-25T03:35:27;14.38;;;5.13;;
6372;SDS011;3219;51.362;7.074;2024-03-25T03:37:54;17.48;;;6.85;;
6372;SDS011;3219;51.362;7.074;2024-03-25T03:40:23;11.00;;;5.25;;
6372;SDS011;3219;51.362;7.074;2024-03-25T03:42:50;12.55;;;4.93;;
6372;SDS011;3219;51.362;7.074;2024-03-25T03:45:18;16.77;;;5.95;;
6372;SDS011;3219;51.362;7.074;2024-03-25T03:47:45;11.88;;;5.00;;
6372;SDS011;3219;51.362;7.074;2024-03-25T03:50:14;10.77;;;4.78;;
6372;SDS011;3219;51.362;7.074;2024-03-25T03:52:42;19.95;;;6.63;;
6372;SDS011;3219;51.362;7.074;2024-03-25T03:55:10;18.90;;;7.97;;
6372;SDS011;3219;51.362;7.074;2024-03-25T03:57:38;18.52;;;6.28;;
6372;SDS011;3219;51.362;7.074;2024-03-25T04:00:08;13.23;;;6.03;;
6372;SDS011;3219;51.362;7.074;2024-03-25T04:02:36;17.67;;;5.68;;
6372;SDS011;3219;51.362;7.074;2024-03-25T04:05:05;13.70;;;5.30;;
6372;SDS011;3219;51.362;7.074;2024-03-25T04:07:33;10.35;;;5.05;;
6372;SDS011;3219;51.362;7.074;2024-03-25T04:10:02;12.35;;;5.50;;
6372;SDS011;3219;51.362;7.074;2024-03-25T04:12:30;13.63;;;5.22;;
6372;SDS011;3219;51.362;7.074;2024-03-25T04:14:58;16.50;;;5.13;;
6372;SDS011;3219;51.362;7.074;2024-03-25T04:17:25;12.27;;;4.68;;
6372;SDS011;3219;51.362;7.074;2024-03-25T04:19:53;16.75;;;6.80;;
6372;SDS011;3219;51.362;7.074;2024-03-25T04:22:21;14.95;;;5.30;;
6372;SDS011;3219;51.362;7.074;2024-03-25T04:24:49;14.05;;;6.10;;
6372;SDS011;3219;51.362;7.074;2024-03-25T04:27:17;16.08;;;4.35;;
6372;SDS011;3219;51.362;7.074;2024-03-25T04:29:49;10.05;;;4.72;;
6372;SDS011;3219;51.362;7.074;2024-03-25T04:32:16;14.43;;;4.68;;
6372;SDS011;3219;51.362;7.074;2024-03-25T04:34:45;15.10;;;5.70;;
6372;SDS011;3219;51.362;7.074;2024-03-25T04:37:12;15.90;;;5.07;;
6372;SDS011;3219;51.362;7.074;2024-03-25T04:39:39;11.25;;;4.75;;
6372;SDS011;3219;51.362;7.074;2024-03-25T04:42:06;7.00;;;4.00;;
6372;SDS011;3219;51.362;7.074;2024-03-25T04:44:35;13.15;;;4.10;;
6372;SDS011;3219;51.362;7.074;2024-03-25T04:47:02;14.70;;;4.22;;
6372;SDS011;3219;51.362;7.074;2024-03-25T04:49:30;14.68;;;4.07;;
6372;SDS011;3219;51.362;7.074;2024-03-25T04:51:57;11.27;;;4.82;;
6372;SDS011;3219;51.362;7.074;2024-03-25T04:54:24;15.68;;;4.22;;
6372;SDS011;3219;51.362;7.074;2024-03-25T04:56:52;10.10;;;4.88;;
6372;SDS011;3219;51.362;7.074;2024-03-25T04:59:19;8.27;;;4.40;;
6372;SDS011;3219;51.362;7.074;2024-03-25T05:01:48;13.95;;;4.25;;
6372;SDS011;3219;51.362;7.074;2024-03-25T05:04:15;13.57;;;4.40;;
6372;SDS011;3219;51.362;7.074;2024-03-25T05:06:42;13.05;;;4.28;;
6372;SDS011;3219;51.362;7.074;2024-03-25T05:09:10;15.07;;;3.65;;
6372;SDS011;3219;51.362;7.074;2024-03-25T05:11:37;13.55;;;4.20;;
6372;SDS011;3219;51.362;7.074;2024-03-25T05:14:04;17.77;;;6.15;;
6372;SDS011;3219;51.362;7.074;2024-03-25T05:16:31;12.18;;;3.95;;
6372;SDS011;3219;51.362;7.074;2024-03-25T05:19:01;13.20;;;5.75;;
6372;SDS011;3219;51.362;7.074;2024-03-25T05:21:28;8.15;;;4.20;;
6372;SDS011;3219;51.362;7.074;2024-03-25T05:23:55;10.45;;;3.15;;
6372;SDS011;3219;51.362;7.074;2024-03-25T05:26:22;11.95;;;3.58;;
6372;SDS011;3219;51.362;7.074;2024-03-25T05:28:52;15.43;;;4.93;;
6372;SDS011;3219;51.362;7.074;2024-03-25T05:31:19;9.63;;;4.90;;
6372;SDS011;3219;51.362;7.074;2024-03-25T05:33:47;14.80;;;5.25;;
6372;SDS011;3219;51.362;7.074;2024-03-25T05:36:15;17.38;;;4.75;;
6372;SDS011;3219;51.362;7.074;2024-03-25T05:38:43;11.93;;;2.95;;
6372;SDS011;3219;51.362;7.074;2024-03-25T05:41:10;7.85;;;3.13;;
6372;SDS011;3219;51.362;7.074;2024-03-25T05:43:38;13.65;;;4.15;;
6372;SDS011;3219;51.362;7.074;2024-03-25T05:46:05;7.38;;;3.63;;
6372;SDS011;3219;51.362;7.074;2024-03-25T05:48:32;13.55;;;4.18;;
6372;SDS011;3219;51.362;7.074;2024-03-25T05:51:00;11.48;;;3.60;;
6372;SDS011;3219;51.362;7.074;2024-03-25T05:53:29;17.10;;;4.03;;
6372;SDS011;3219;51.362;7.074;2024-03-25T05:55:56;13.32;;;3.90;;
6372;SDS011;3219;51.362;7.074;2024-03-25T05:58:23;7.25;;;3.25;;
6372;SDS011;3219;51.362;7.074;2024-03-25T06:00:51;7.53;;;3.33;;
6372;SDS011;3219;51.362;7.074;2024-03-25T06:03:18;11.30;;;4.07;;
6372;SDS011;3219;51.362;7.074;2024-03-25T06:05:46;13.98;;;4.18;;
6372;SDS011;3219;51.362;7.074;2024-03-25T06:08:13;11.00;;;3.72;;
6372;SDS011;3219;51.362;7.074;2024-03-25T06:10:42;9.68;;;4.18;;
6372;SDS011;3219;51.362;7.074;2024-03-25T06:13:10;7.93;;;3.55;;
6372;SDS011;3219;51.362;7.074;2024-03-25T06:15:37;8.55;;;3.30;;
6372;SDS011;3219;51.362;7.074;2024-03-25T06:18:04;11.75;;;3.53;;
6372;SDS011;3219;51.362;7.074;2024-03-25T06:20:31;11.52;;;4.47;;
6372;SDS011;3219;51.362;7.074;2024-03-25T06:22:59;9.70;;;3.47;;
6372;SDS011;3219;51.362;7.074;2024-03-25T06:25:26;7.35;;;3.65;;
6372;SDS011;3219;51.362;7.074;2024-03-25T06:27:55;14.10;;;4.30;;
6372;SDS011;3219;51.362;7.074;2024-03-25T06:30:22;10.52;;;3.17;;
6372;SDS011;3219;51.362;7.074;2024-03-25T06:33:08;7.43;;;2.97;;
6372;SDS011;3219;51.362;7.074;2024-03-25T06:36:02;10.65;;;2.88;;
6372;SDS011;3219;51.362;7.074;2024-03-25T06:38:30;9.63;;;3.13;;
6372;SDS011;3219;51.362;7.074;2024-03-25T06:40:57;8.73;;;2.65;;
6372;SDS011;3219;51.362;7.074;2024-03-25T06:43:26;9.20;;;2.63;;
6372;SDS011;3219;51.362;7.074;2024-03-25T06:45:53;7.50;;;2.55;;
6372;SDS011;3219;51.362;7.074;2024-03-25T06:48:21;9.13;;;2.78;;
6372;SDS011;3219;51.362;7.074;2024-03-25T06:50:54;9.95;;;3.13;;
6372;SDS011;3219;51.362;7.074;2024-03-25T06:53:22;8.20;;;3.20;;
6372;SDS011;3219;51.362;7.074;2024-03-25T06:55:53;11.63;;;2.80;;
6372;SDS011;3219;51.362;7.074;2024-03-25T06:58:20;11.82;;;3.55;;
6372;SDS011;3219;51.362;7.074;2024-03-25T07:00:49;9.23;;;2.72;;
6372;SDS011;3219;51.362;7.074;2024-03-25T07:03:16;8.40;;;2.30;;
6372;SDS011;3219;51.362;7.074;2024-03-25T07:05:44;12.57;;;3.45;;
6372;SDS011;3219;51.362;7.074;2024-03-25T07:08:11;11.30;;;3.50;;
6372;SDS011;3219;51.362;7.074;2024-03-25T07:10:40;11.07;;;3.38;;
6372;SDS011;3219;51.362;7.074;2024-03-25T07:13:08;9.15;;;3.97;;
6372;SDS011;3219;51.362;7.074;2024-03-25T07:15:35;8.85;;;2.78;;
6372;SDS011;3219;51.362;7.074;2024-03-25T07:18:05;12.85;;;4.07;;
6372;SDS011;3219;51.362;7.074;2024-03-25T07:20:32;9.45;;;3.03;;
6372;SDS011;3219;51.362;7.074;2024-03-25T07:22:59;15.35;;;4.70;;
6372;SDS011;3219;51.362;7.074;2024-03-25T07:25:27;11.18;;;4.40;;
6372;SDS011;3219;51.362;7.074;2024-03-25T07:27:54;12.95;;;3.55;;
6372;SDS011;3219;51.362;7.074;2024-03-25T07:30:21;9.65;;;4.13;;
6372;SDS011;3219;51.362;7.074;2024-03-25T07:32:49;20.73;;;4.80;;
6372;SDS011;3219;51.362;7.074;2024-03-25T07:35:17;14.50;;;5.13;;
6372;SDS011;3219;51.362;7.074;2024-03-25T07:37:45;20.90;;;5.63;;
6372;SDS011;3219;51.362;7.074;2024-03-25T07:40:12;17.02;;;4.70;;
6372;SDS011;3219;51.362;7.074;2024-03-25T07:42:39;18.15;;;4.05;;
6372;SDS011;3219;51.362;7.074;2024-03-25T07:45:07;17.23;;;4.40;;
6372;SDS011;3219;51.362;7.074;2024-03-25T07:47:34;14.02;;;3.20;;
6372;SDS011;3219;51.362;7.074;2024-03-25T07:50:02;15.45;;;3.53;;
6372;SDS011;3219;51.362;7.074;2024-03-25T07:52:30;9.50;;;3.20;;
6372;SDS011;3219;51.362;7.074;2024-03-25T07:54:58;7.88;;;2.20;;
6372;SDS011;3219;51.362;7.074;2024-03-25T07:57:25;10.40;;;2.72;;
6372;SDS011;3219;51.362;7.074;2024-03-25T08:29:07;9.73;;;3.95;;
6372;SDS011;3219;51.362;7.074;2024-03-25T08:31:33;9.48;;;2.58;;
6372;SDS011;3219;51.362;7.074;2024-03-25T08:33:59;6.20;;;1.48;;
6372;SDS011;3219;51.362;7.074;2024-03-25T08:36:25;7.25;;;2.22;;
6372;SDS011;3219;51.362;7.074;2024-03-25T08:38:51;10.77;;;2.78;;
6372;SDS011;3219;51.362;7.074;2024-03-25T08:41:17;7.65;;;2.15;;
6372;SDS011;3219;51.362;7.074;2024-03-25T08:43:44;5.45;;;1.17;;
6372;SDS011;3219;51.362;7.074;2024-03-25T08:46:10;6.82;;;1.95;;
6372;SDS011;3219;51.362;7.074;2024-03-25T08:48:35;6.30;;;1.65;;
6372;SDS011;3219;51.362;7.074;2024-03-25T08:51:01;3.83;;;1.70;;
6372;SDS011;3219;51.362;7.074;2024-03-25T08:53:27;5.80;;;1.27;;
6372;SDS011;3219;51.362;7.074;2024-03-25T08:55:53;7.25;;;1.60;;
6372;SDS011;3219;51.362;7.074;2024-03-25T08:58:19;5.53;;;2.25;;
6372;SDS011;3219;51.362;7.074;2024-03-25T09:00:46;8.73;;;2.15;;
6372;SDS011;3219;51.362;7.074;2024-03-25T09:03:12;7.63;;;1.60;;
6372;SDS011;3219;51.362;7.074;2024-03-25T09:05:38;4.10;;;1.35;;
6372;SDS011;3219;51.362;7.074;2024-03-25T09:08:04;8.20;;;2.05;;
6372;SDS011;3219;51.362;7.074;2024-03-25T09:10:30;8.45;;;2.10;;
6372;SDS011;3219;51.362;7.074;2024-03-25T09:13:15;5.97;;;1.45;;
6372;SDS011;3219;51.362;7.074;2024-03-25T09:15:41;8.32;;;1.33;;
6372;SDS011;3219;51.362;7.074;2024-03-25T09:18:08;6.85;;;1.98;;
6372;SDS011;3219;51.362;7.074;2024-03-25T09:20:34;4.65;;;1.80;;
6372;SDS011;3219;51.362;7.074;2024-03-25T09:23:00;6.47;;;1.73;;
6372;SDS011;3219;51.362;7.074;2024-03-25T09:25:25;2.33;;;1.30;;
6372;SDS011;3219;51.362;7.074;2024-03-25T09:27:51;7.10;;;2.40;;
6372;SDS011;3219;51.362;7.074;2024-03-25T09:30:18;6.30;;;2.03;;
6372;SDS011;3219;51.362;7.074;2024-03-25T09:32:44;7.15;;;1.52;;
6372;SDS011;3219;51.362;7.074;2024-03-25T09:35:12;6.25;;;1.45;;
6372;SDS011;3219;51.362;7.074;2024-03-25T09:37:38;5.63;;;1.60;;
6372;SDS011;3219;51.362;7.074;2024-03-25T09:40:04;7.80;;;1.92;;
6372;SDS011;3219;51.362;7.074;2024-03-25T09:42:33;12.27;;;2.00;;
6372;SDS011;3219;51.362;7.074;2024-03-25T09:45:01;9.10;;;2.47;;
6372;SDS011;3219;51.362;7.074;2024-03-25T09:47:27;5.70;;;1.48;;
6372;SDS011;3219;51.362;7.074;2024-03-25T09:49:54;5.32;;;1.67;;
6372;SDS011;3219;51.362;7.074;2024-03-25T09:52:21;6.25;;;1.98;;
6372;SDS011;3219;51.362;7.074;2024-03-25T09:54:47;6.63;;;2.25;;
6372;SDS011;3219;51.362;7.074;2024-03-25T09:57:13;6.43;;;2.35;;
6372;SDS011;3219;51.362;7.074;2024-03-25T09:59:40;7.72;;;2.47;;
6372;SDS011;3219;51.362;7.074;2024-03-25T10:02:05;5.90;;;1.65;;
6372;SDS011;3219;51.362;7.074;2024-03-25T10:04:35;6.32;;;1.73;;
6372;SDS011;3219;51.362;7.074;2024-03-25T10:07:04;6.38;;;1.70;;
6372;SDS011;3219;51.362;7.074;2024-03-25T10:09:31;4.50;;;1.85;;
6372;SDS011;3219;51.362;7.074;2024-03-25T10:11:57;7.03;;;1.77;;
6372;SDS011;3219;51.362;7.074;2024-03-25T10:14:24;8.02;;;1.65;;
6372;SDS011;3219;51.362;7.074;2024-03-25T10:16:50;4.88;;;1.80;;
6372;SDS011;3219;51.362;7.074;2024-03-25T10:19:16;7.60;;;2.50;;
6372;SDS011;3219;51.362;7.074;2024-03-25T10:21:42;6.72;;;1.40;;
6372;SDS011;3219;51.362;7.074;2024-03-25T10:24:08;6.55;;;1.70;;
6372;SDS011;3219;51.362;7.074;2024-03-25T10:26:35;6.35;;;1.77;;
6372;SDS011;3219;51.362;7.074;2024-03-25T10:29:01;4.97;;;1.42;;
6372;SDS011;3219;51.362;7.074;2024-03-25T10:31:28;5.68;;;1.83;;
6372;SDS011;3219;51.362;7.074;2024-03-25T10:33:54;5.25;;;1.40;;
6372;SDS011;3219;51.362;7.074;2024-03-25T10:36:21;5.40;;;2.17;;
6372;SDS011;3219;51.362;7.074;2024-03-25T10:38:48;4.18;;;1.98;;
6372;SDS011;3219;51.362;7.074;2024-03-25T10:41:17;6.07;;;1.38;;
6372;SDS011;3219;51.362;7.074;2024-03-25T10:43:45;5.13;;;1.65;;
6372;SDS011;3219;51.362;7.074;2024-03-25T10:46:12;5.60;;;1.63;;
6372;SDS011;3219;51.362;7.074;2024-03-25T10:48:42;5.95;;;1.60;;
6372;SDS011;3219;51.362;7.074;2024-03-25T10:51:13;3.78;;;2.10;;
6372;SDS011;3219;51.362;7.074;2024-03-25T10:53:39;1.95;;;1.27;;
6372;SDS011;3219;51.362;7.074;2024-03-25T10:56:07;3.30;;;1.77;;
6372;SDS011;3219;51.362;7.074;2024-03-25T10:58:34;4.35;;;1.15;;
6372;SDS011;3219;51.362;7.074;2024-03-25T11:01:02;6.47;;;1.15;;
6372;SDS011;3219;51.362;7.074;2024-03-25T11:03:28;2.58;;;1.08;;
6372;SDS011;3219;51.362;7.074;2024-03-25T11:05:55;3.95;;;1.25;;
6372;SDS011;3219;51.362;7.074;2024-03-25T11:08:29;5.63;;;1.52;;
6372;SDS011;3219;51.362;7.074;2024-03-25T11:10:56;5.93;;;2.03;;
6372;SDS011;3219;51.362;7.074;2024-03-25T11:13:22;3.55;;;1.63;;
6372;SDS011;3219;51.362;7.074;2024-03-25T11:15:48;4.18;;;1.70;;
6372;SDS011;3219;51.362;7.074;2024-03-25T11:18:16;2.90;;;1.20;;
6372;SDS011;3219;51.362;7.074;2024-03-25T11:20:42;6.30;;;1.60;;
6372;SDS011;3219;51.362;7.074;2024-03-25T11:23:09;4.13;;;1.92;;
6372;SDS011;3219;51.362;7.074;2024-03-25T11:25:35;4.65;;;1.17;;
6372;SDS011;3219;51.362;7.074;2024-03-25T11:28:01;3.45;;;1.70;;
6372;SDS011;3219;51.362;7.074;2024-03-25T11:30:27;4.75;;;1.65;;
6372;SDS011;3219;51.362;7.074;2024-03-25T11:32:54;7.97;;;2.58;;
6372;SDS011;3219;51.362;7.074;2024-03-25T11:35:22;2.00;;;1.20;;
6372;SDS011;3219;51.362;7.074;2024-03-25T11:37:48;4.28;;;1.65;;
6372;SDS011;3219;51.362;7.074;2024-03-25T11:40:14;6.68;;;1.42;;
6372;SDS011;3219;51.362;7.074;2024-03-25T11:42:40;4.78;;;1.77;;
6372;SDS011;3219;51.362;7.074;2024-03-25T11:45:07;4.50;;;1.17;;
6372;SDS011;3219;51.362;7.074;2024-03-25T11:47:39;4.55;;;1.42;;
6372;SDS011;3219;51.362;7.074;2024-03-25T11:50:07;3.78;;;1.63;;
6372;SDS011;3219;51.362;7.074;2024-03-25T11:52:34;4.75;;;1.90;;
6372;SDS011;3219;51.362;7.074;2024-03-25T11:55:00;2.00;;;1.05;;
6372;SDS011;3219;51.362;7.074;2024-03-25T11:57:27;5.38;;;1.25;;
6372;SDS011;3219;51.362;7.074;2024-03-25T11:59:53;3.35;;;1.23;;
6372;SDS011;3219;51.362;7.074;2024-03-25T12:02:19;5.65;;;1.67;;
6372;SDS011;3219;51.362;7.074;2024-03-25T12:04:45;4.10;;;0.80;;
6372;SDS011;3219;51.362;7.074;2024-03-25T12:07:12;5.13;;;1.40;;
6372;SDS011;3219;51.362;7.074;2024-03-25T12:09:40;7.00;;;1.75;;
6372;SDS011;3219;51.362;7.074;2024-03-25T12:12:25;2.72;;;1.52;;
6372;SDS011;3219;51.362;7.074;2024-03-25T12:14:51;3.97;;;1.90;;
6372;SDS011;3219;51.362;7.074;2024-03-25T12:17:18;3.92;;;1.40;;
6372;SDS011;3219;51.362;7.074;2024-03-25T12:19:45;5.22;;;0.95;;
6372;SDS011;3219;51.362;7.074;2024-03-25T12:22:22;3.70;;;1.05;;
6372;SDS011;3219;51.362;7.074;2024-03-25T12:24:51;3.97;;;1.60;;
6372;SDS011;3219;51.362;7.074;2024-03-25T12:27:17;4.38;;;1.90;;
6372;SDS011;3219;51.362;7.074;2024-03-25T12:29:43;4.43;;;2.08;;
6372;SDS011;3219;51.362;7.074;2024-03-25T12:32:09;2.20;;;1.30;;
6372;SDS011;3219;51.362;7.074;2024-03-25T12:34:35;3.47;;;0.90;;
6372;SDS011;3219;51.362;7.074;2024-03-25T12:37:01;3.30;;;1.95;;
6372;SDS011;3219;51.362;7.074;2024-03-25T12:39:28;5.35;;;2.05;;
6372;SDS011;3219;51.362;7.074;2024-03-25T12:41:55;4.07;;;1.42;;
6372;SDS011;3219;51.362;7.074;2024-03-25T12:44:21;4.93;;;1.92;;
6372;SDS011;3219;51.362;7.074;2024-03-25T12:46:47;4.22;;;1.27;;
6372;SDS011;3219;51.362;7.074;2024-03-25T12:49:12;2.78;;;1.38;;
6372;SDS011;3219;51.362;7.074;2024-03-25T12:51:38;3.58;;;1.98;;
6372;SDS011;3219;51.362;7.074;2024-03-25T12:54:04;7.55;;;2.28;;
6372;SDS011;3219;51.362;7.074;2024-03-25T12:56:30;6.70;;;1.23;;
6372;SDS011;3219;51.362;7.074;2024-03-25T12:58:57;3.88;;;1.45;;
6372;SDS011;3219;51.362;7.074;2024-03-25T13:01:23;3.40;;;1.50;;
6372;SDS011;3219;51.362;7.074;2024-03-25T13:03:49;3.33;;;1.25;;
6372;SDS011;3219;51.362;7.074;2024-03-25T13:06:15;1.80;;;1.48;;
6372;SDS011;3219;51.362;7.074;2024-03-25T13:08:40;3.75;;;1.20;;
6372;SDS011;3219;51.362;7.074;2024-03-25T13:11:06;2.30;;;1.30;;
6372;SDS011;3219;51.362;7.074;2024-03-25T13:13:32;4.63;;;1.58;;
6372;SDS011;3219;51.362;7.074;2024-03-25T13:15:59;2.97;;;1.45;;
6372;SDS011;3219;51.362;7.074;2024-03-25T13:18:25;2.58;;;1.23;;
6372;SDS011;3219;51.362;7.074;2024-03-25T13:20:51;4.28;;;2.33;;
6372;SDS011;3219;51.362;7.074;2024-03-25T13:23:17;2.08;;;1.38;;
6372;SDS011;3219;51.362;7.074;2024-03-25T13:25:43;6.15;;;1.33;;
6372;SDS011;3219;51.362;7.074;2024-03-25T13:28:08;5.18;;;1.48;;
6372;SDS011;3219;51.362;7.074;2024-03-25T13:30:34;5.25;;;1.52;;
6372;SDS011;3219;51.362;7.074;2024-03-25T13:33:01;2.45;;;1.73;;
6372;SDS011;3219;51.362;7.074;2024-03-25T13:35:27;3.00;;;1.48;;
6372;SDS011;3219;51.362;7.074;2024-03-25T13:37:53;2.65;;;2.13;;
6372;SDS011;3219;51.362;7.074;2024-03-25T13:40:19;2.95;;;1.23;;
6372;SDS011;3219;51.362;7.074;2024-03-25T13:42:45;7.90;;;2.17;;
6372;SDS011;3219;51.362;7.074;2024-03-25T13:45:11;4.80;;;1.75;;
6372;SDS011;3219;51.362;7.074;2024-03-25T13:47:36;4.93;;;1.58;;
6372;SDS011;3219;51.362;7.074;2024-03-25T13:50:04;10.43;;;3.70;;
6372;SDS011;3219;51.362;7.074;2024-03-25T13:52:31;3.08;;;1.50;;
6372;SDS011;3219;51.362;7.074;2024-03-25T13:54:57;2.80;;;1.13;;
6372;SDS011;3219;51.362;7.074;2024-03-25T13:57:22;4.97;;;1.60;;
6372;SDS011;3219;51.362;7.074;2024-03-25T13:59:49;3.00;;;1.75;;
6372;SDS011;3219;51.362;7.074;2024-03-25T14:02:15;2.85;;;1.38;;
6372;SDS011;3219;51.362;7.074;2024-03-25T14:04:41;4.75;;;1.17;;
6372;SDS011;3219;51.362;7.074;2024-03-25T14:07:08;4.90;;;2.75;;
6372;SDS011;3219;51.362;7.074;2024-03-25T14:09:34;5.10;;;1.30;;
6372;SDS011;3219;51.362;7.074;2024-03-25T14:12:00;1.88;;;1.10;;
6372;SDS011;3219;51.362;7.074;2024-03-25T14:14:26;1.80;;;1.60;;
6372;SDS011;3219;51.362;7.074;2024-03-25T14:16:52;1.98;;;1.42;;
6372;SDS011;3219;51.362;7.074;2024-03-25T14:19:18;4.93;;;1.27;;
6372;SDS011;3219;51.362;7.074;2024-03-25T14:21:43;2.72;;;1.48;;
6372;SDS011;3219;51.362;7.074;2024-03-25T14:24:11;4.63;;;1.77;;
6372;SDS011;3219;51.362;7.074;2024-03-25T14:26:36;3.80;;;1.52;;
6372;SDS011;3219;51.362;7.074;2024-03-25T14:29:02;6.35;;;2.03;;
6372;SDS011;3219;51.362;7.074;2024-03-25T14:31:28;6.22;;;1.60;;
6372;SDS011;3219;51.362;7.074;2024-03-25T14:33:54;5.63;;;1.45;;
6372;SDS011;3219;51.362;7.074;2024-03-25T14:36:20;3.38;;;1.20;;
6372;SDS011;3219;51.362;7.074;2024-03-25T14:38:46;4.68;;;1.50;;
6372;SDS011;3219;51.362;7.074;2024-03-25T14:41:17;6.25;;;1.88;;
6372;SDS011;3219;51.362;7.074;2024-03-25T14:43:44;5.00;;;1.65;;
6372;SDS011;3219;51.362;7.074;2024-03-25T14:46:10;3.20;;;1.80;;
6372;SDS011;3219;51.362;7.074;2024-03-25T14:48:36;3.47;;;1.85;;
6372;SDS011;3219;51.362;7.074;2024-03-25T14:51:02;4.32;;;1.52;;
6372;SDS011;3219;51.362;7.074;2024-03-25T14:53:28;2.95;;;1.75;;
6372;SDS011;3219;51.362;7.074;2024-03-25T14:55:54;3.08;;;1.30;;
6372;SDS011;3219;51.362;7.074;2024-03-25T14:58:21;2.38;;;1.60;;
6372;SDS011;3219;51.362;7.074;2024-03-25T15:00:47;3.83;;;1.48;;
6372;SDS011;3219;51.362;7.074;2024-03-25T15:03:13;4.57;;;1.80;;
6372;SDS011;3219;51.362;7.074;2024-03-25T15:05:39;2.90;;;2.53;;
6372;SDS011;3219;51.362;7.074;2024-03-25T15:08:05;3.30;;;1.40;;
6372;SDS011;3219;51.362;7.074;2024-03-25T15:10:33;4.55;;;2.13;;
6372;SDS011;3219;51.362;7.074;2024-03-25T15:12:59;4.18;;;2.85;;
6372;SDS011;3219;51.362;7.074;2024-03-25T15:15:26;5.15;;;1.27;;
6372;SDS011;3219;51.362;7.074;2024-03-25T15:17:52;3.17;;;1.17;;
6372;SDS011;3219;51.362;7.074;2024-03-25T15:20:18;3.50;;;1.65;;
6372;SDS011;3219;51.362;7.074;2024-03-25T15:22:44;2.25;;;1.75;;
6372;SDS011;3219;51.362;7.074;2024-03-25T15:25:10;5.35;;;1.52;;
6372;SDS011;3219;51.362;7.074;2024-03-25T15:27:35;5.57;;;1.42;;
6372;SDS011;3219;51.362;7.074;2024-03-25T15:30:02;3.35;;;1.33;;
6372;SDS011;3219;51.362;7.074;2024-03-25T15:32:29;3.25;;;1.08;;
6372;SDS011;3219;51.362;7.074;2024-03-25T15:34:55;1.83;;;1.20;;
6372;SDS011;3219;51.362;7.074;2024-03-25T15:37:21;3.47;;;0.85;;
6372;SDS011;3219;51.362;7.074;2024-03-25T15:39:47;4.38;;;2.10;;
6372;SDS011;3219;51.362;7.074;2024-03-25T15:42:12;2.03;;;1.33;;
6372;SDS011;3219;51.362;7.074;2024-03-25T15:44:38;3.15;;;0.75;;